createdAt,value
2019-05-25T00:02:25.187Z,25.51
2019-05-25T00:04:52.094Z,25.53
2019-05-25T00:07:19.048Z,25.53
2019-05-25T00:09:48.355Z,25.55
2019-05-25T00:12:16.151Z,25.51
2019-05-25T00:14:43.114Z,25.42
2019-05-25T00:17:09.999Z,25.38
2019-05-25T00:19:36.878Z,25.30
2019-05-25T00:22:03.986Z,25.28
2019-05-25T00:24:30.928Z,25.28
2019-05-25T00:26:57.858Z,25.23
2019-05-25T00:29:24.802Z,25.19
2019-05-25T00:31:51.761Z,25.21
2019-05-25T00:34:18.880Z,25.20
2019-05-25T00:36:45.851Z,25.19
2019-05-25T00:39:12.802Z,25.20
2019-05-25T00:41:39.754Z,25.16
2019-05-25T00:44:06.624Z,25.17
2019-05-25T00:46:33.596Z,25.15
2019-05-25T00:49:00.541Z,25.19
2019-05-25T00:51:27.565Z,25.24
2019-05-25T00:53:54.529Z,25.25
2019-05-25T00:56:21.429Z,25.25
2019-05-25T00:58:48.312Z,25.26
2019-05-25T01:01:15.298Z,25.28
2019-05-25T01:03:42.274Z,25.28
2019-05-25T01:06:09.213Z,25.24
2019-05-25T01:08:36.165Z,25.18
2019-05-25T01:11:03.145Z,25.17
2019-05-25T01:13:30.106Z,25.13
2019-05-25T01:15:58.179Z,25.05
2019-05-25T01:18:25.137Z,25.03
2019-05-25T01:20:52.113Z,25.05
2019-05-25T01:23:19.109Z,25.07
2019-05-25T01:25:46.284Z,25.04
2019-05-25T01:28:13.249Z,25.08
2019-05-25T01:30:40.237Z,25.13
2019-05-25T01:33:07.167Z,25.16
2019-05-25T01:35:34.037Z,25.16
2019-05-25T01:38:00.927Z,25.16
2019-05-25T01:40:27.817Z,25.23
2019-05-25T01:42:54.775Z,25.18
2019-05-25T01:45:21.719Z,25.10
2019-05-25T01:47:48.938Z,24.99
2019-05-25T01:50:15.832Z,24.95
2019-05-25T01:52:42.796Z,24.93
2019-05-25T01:55:10.382Z,24.87
2019-05-25T01:57:39.782Z,24.84
2019-05-25T02:00:09.522Z,24.83
2019-05-25T02:02:36.414Z,24.78
2019-05-25T02:05:12.925Z,24.68
2019-05-25T02:07:39.896Z,24.64
2019-05-25T02:10:06.833Z,24.60
2019-05-25T02:12:33.786Z,24.56
2019-05-25T02:15:00.768Z,24.63
2019-05-25T02:17:28.799Z,24.70
2019-05-25T02:19:55.765Z,24.72
2019-05-25T02:22:23.640Z,24.66
2019-05-25T02:24:50.624Z,24.62
2019-05-25T02:27:17.546Z,24.58
2019-05-25T02:29:44.509Z,24.51
2019-05-25T02:32:11.484Z,24.36
2019-05-25T02:34:38.491Z,24.22
2019-05-25T02:37:05.439Z,24.08
2019-05-25T02:39:32.381Z,24.00
2019-05-25T02:41:59.253Z,24.01
2019-05-25T02:44:26.426Z,24.00
2019-05-25T02:46:53.379Z,23.99
2019-05-25T02:49:20.314Z,24.09
2019-05-25T02:51:47.216Z,24.13
2019-05-25T02:54:14.146Z,24.18
2019-05-25T02:56:41.034Z,24.26
2019-05-25T02:59:07.920Z,24.26
2019-05-25T03:01:34.889Z,24.25
2019-05-25T03:04:02.202Z,24.25
2019-05-25T03:06:29.128Z,24.23
2019-05-25T03:08:56.023Z,24.26
2019-05-25T03:11:22.922Z,24.33
2019-05-25T03:13:49.884Z,24.40
2019-05-25T03:16:17.919Z,24.39
2019-05-25T03:18:44.862Z,24.33
2019-05-25T03:21:11.752Z,24.22
2019-05-25T03:23:38.642Z,24.02
2019-05-25T03:26:05.862Z,23.96
2019-05-25T03:28:33.069Z,23.99
2019-05-25T03:30:59.939Z,24.03
2019-05-25T03:33:26.887Z,24.01
2019-05-25T03:35:54.150Z,23.99
2019-05-25T03:38:21.089Z,24.00
2019-05-25T03:40:48.054Z,24.02
2019-05-25T03:43:15.013Z,23.94
2019-05-25T03:45:41.968Z,23.92
2019-05-25T03:48:08.923Z,23.88
2019-05-25T03:50:35.876Z,23.88
2019-05-25T03:53:02.830Z,23.95
2019-05-25T03:55:29.788Z,24.00
2019-05-25T03:57:56.734Z,24.05
2019-05-25T04:00:23.598Z,24.00
2019-05-25T04:02:50.549Z,23.93
2019-05-25T04:05:17.467Z,23.91
2019-05-25T04:07:44.436Z,24.01
2019-05-25T04:10:11.396Z,24.12
2019-05-25T04:12:38.407Z,24.24
2019-05-25T04:15:05.333Z,24.30
2019-05-25T04:17:32.278Z,24.38
2019-05-25T04:19:59.345Z,24.41
2019-05-25T04:22:26.346Z,24.33
2019-05-25T04:24:53.306Z,24.32
2019-05-25T04:27:20.238Z,24.45
2019-05-25T04:29:47.177Z,24.65
2019-05-25T04:32:14.101Z,24.83
2019-05-25T04:34:41.320Z,24.94
2019-05-25T04:37:08.209Z,25.13
2019-05-25T04:39:35.175Z,25.31
2019-05-25T04:42:05.263Z,25.26
2019-05-25T04:44:32.136Z,25.31
2019-05-25T04:46:59.026Z,25.48
2019-05-25T04:49:27.048Z,25.63
2019-05-25T04:51:53.950Z,25.71
2019-05-25T04:54:20.969Z,25.83
2019-05-25T04:56:47.920Z,25.98
2019-05-25T04:59:14.803Z,26.04
2019-05-25T05:01:41.689Z,26.06
2019-05-25T05:04:09.617Z,26.09
2019-05-25T05:06:36.557Z,26.10
2019-05-25T05:09:03.433Z,26.13
2019-05-25T05:11:30.377Z,26.15
2019-05-25T05:13:58.593Z,26.18
2019-05-25T05:16:25.476Z,26.22
2019-05-25T05:18:52.424Z,26.26
2019-05-25T05:21:19.641Z,26.30
2019-05-25T05:23:46.679Z,26.32
2019-05-25T05:26:13.944Z,26.37
2019-05-25T05:28:40.925Z,26.44
2019-05-25T05:31:23.116Z,26.51
2019-05-25T05:33:39.705Z,26.54
2019-05-25T05:36:06.677Z,26.55
2019-05-25T05:38:33.613Z,26.56
2019-05-25T05:41:00.845Z,26.59
2019-05-25T05:43:27.821Z,26.63
2019-05-25T05:45:54.761Z,26.73
2019-05-25T05:48:21.625Z,26.81
2019-05-25T05:50:48.494Z,26.90
2019-05-25T05:53:15.384Z,27.35
2019-05-25T05:55:42.346Z,27.74
2019-05-25T05:58:09.309Z,28.11
2019-05-25T06:00:36.615Z,28.41
2019-05-25T06:03:03.556Z,28.66
2019-05-25T06:05:30.524Z,28.87
2019-05-25T06:07:57.481Z,29.07
2019-05-25T06:10:24.642Z,29.25
2019-05-25T06:12:51.634Z,29.41
2019-05-25T06:15:19.570Z,29.51
2019-05-25T06:17:46.518Z,29.67
2019-05-25T06:20:13.431Z,29.82
2019-05-25T06:22:40.396Z,29.97
2019-05-25T06:25:07.331Z,30.10
2019-05-25T06:27:34.272Z,30.28
2019-05-25T06:30:01.208Z,30.49
2019-05-25T06:32:28.166Z,30.72
2019-05-25T06:34:55.398Z,30.90
2019-05-25T06:37:22.287Z,31.05
2019-05-25T06:39:49.314Z,31.23
2019-05-25T06:42:16.197Z,31.36
2019-05-25T06:44:43.196Z,31.57
2019-05-25T06:47:10.168Z,31.78
2019-05-25T06:49:37.187Z,31.99
2019-05-25T06:52:04.179Z,32.23
2019-05-25T06:54:31.119Z,32.49
2019-05-25T06:56:58.294Z,32.74
2019-05-25T06:59:25.249Z,32.99
2019-05-25T07:01:52.513Z,33.27
2019-05-25T07:04:19.445Z,33.55
2019-05-25T07:06:46.318Z,33.85
2019-05-25T07:09:13.185Z,34.09
2019-05-25T07:11:40.072Z,34.32
2019-05-25T07:14:07.025Z,34.46
2019-05-25T07:16:33.923Z,34.73
2019-05-25T07:19:00.865Z,34.96
2019-05-25T07:21:27.761Z,35.08
2019-05-25T07:23:54.923Z,35.00
2019-05-25T07:26:22.210Z,34.56
2019-05-25T07:28:49.168Z,34.17
2019-05-25T07:31:16.122Z,33.92
2019-05-25T07:33:43.058Z,33.86
2019-05-25T07:36:10.077Z,34.28
2019-05-25T07:38:37.041Z,34.83
2019-05-25T07:41:04.216Z,35.20
2019-05-25T07:43:31.236Z,35.63
2019-05-25T07:46:04.556Z,35.99
2019-05-25T07:48:33.161Z,36.12
2019-05-25T07:51:00.111Z,35.85
2019-05-25T07:53:27.062Z,34.54
2019-05-25T07:55:54.043Z,33.33
2019-05-25T07:58:21.023Z,33.14
2019-05-25T08:00:48.009Z,33.13
2019-05-25T08:03:14.953Z,33.63
2019-05-25T08:05:42.254Z,34.26
2019-05-25T08:08:09.727Z,34.51
2019-05-25T08:10:36.701Z,34.22
2019-05-25T08:13:03.656Z,34.19
2019-05-25T08:15:30.593Z,34.50
2019-05-25T08:17:58.559Z,34.48
2019-05-25T08:20:25.545Z,34.36
2019-05-25T08:22:52.773Z,34.11
2019-05-25T08:25:20.181Z,33.76
2019-05-25T08:27:47.062Z,33.45
2019-05-25T08:30:13.932Z,33.07
2019-05-25T08:32:42.533Z,32.72
2019-05-25T08:35:09.505Z,32.27
2019-05-25T08:37:36.563Z,31.96
2019-05-25T08:40:03.487Z,31.77
2019-05-25T08:42:30.399Z,31.63
2019-05-25T08:44:57.353Z,31.51
2019-05-25T08:47:24.303Z,31.40
2019-05-25T08:49:51.257Z,31.34
2019-05-25T08:52:18.249Z,31.27
2019-05-25T08:54:45.225Z,31.06
2019-05-25T08:57:16.181Z,30.85
2019-05-25T08:59:40.723Z,30.68
2019-05-25T09:02:07.657Z,30.54
2019-05-25T09:04:34.650Z,30.46
2019-05-25T09:07:01.544Z,30.42
2019-05-25T09:09:29.632Z,30.34
2019-05-25T09:11:56.533Z,30.27
2019-05-25T09:14:23.747Z,30.20
2019-05-25T09:16:50.949Z,30.19
2019-05-25T09:19:18.489Z,30.12
2019-05-25T09:22:01.534Z,30.07
2019-05-25T09:24:15.947Z,30.07
2019-05-25T09:26:42.909Z,30.03
2019-05-25T09:29:09.785Z,30.04
2019-05-25T09:31:36.745Z,30.03
2019-05-25T09:34:04.026Z,29.90
2019-05-25T09:36:30.972Z,29.83
2019-05-25T09:38:57.845Z,29.81
2019-05-25T09:41:24.740Z,29.81
2019-05-25T09:43:51.696Z,29.82
2019-05-25T09:46:18.728Z,29.82
2019-05-25T09:48:46.365Z,29.82
2019-05-25T09:51:16.361Z,29.78
2019-05-25T09:53:42.029Z,29.72
2019-05-25T09:56:09.473Z,29.65
2019-05-25T09:58:36.348Z,29.62
2019-05-25T10:01:03.240Z,29.59
2019-05-25T10:03:31.426Z,29.55
2019-05-25T10:05:58.473Z,29.53
2019-05-25T10:08:27.691Z,29.50
2019-05-25T10:10:54.703Z,29.49
2019-05-25T10:13:21.685Z,29.45
2019-05-25T10:15:48.954Z,29.42
2019-05-25T10:18:15.841Z,29.44
2019-05-25T10:20:43.075Z,29.48
2019-05-25T10:23:11.374Z,29.51
2019-05-25T10:25:39.137Z,29.51
2019-05-25T10:28:06.191Z,29.50
2019-05-25T10:30:33.054Z,29.46
2019-05-25T10:32:59.935Z,29.42
2019-05-25T10:35:26.900Z,29.40
2019-05-25T10:37:53.863Z,29.42
2019-05-25T10:40:20.841Z,29.41
2019-05-25T10:42:47.774Z,29.37
2019-05-25T10:45:15.690Z,29.34
2019-05-25T10:47:42.642Z,29.36
2019-05-25T10:50:09.966Z,29.37
2019-05-25T10:52:37.076Z,29.41
2019-05-25T10:55:04.012Z,29.40
2019-05-25T10:57:31.015Z,29.34
2019-05-25T10:59:58.301Z,29.29
2019-05-25T11:02:25.282Z,29.27
2019-05-25T11:04:52.709Z,29.26
2019-05-25T11:07:19.735Z,29.26
2019-05-25T11:09:47.004Z,29.28
2019-05-25T11:12:13.976Z,29.29
2019-05-25T11:14:41.227Z,29.32
2019-05-25T11:17:08.214Z,29.31
2019-05-25T11:19:35.233Z,29.32
2019-05-25T11:22:02.110Z,29.30
2019-05-25T11:24:29.386Z,29.31
2019-05-25T11:26:59.580Z,29.30
2019-05-25T11:29:24.849Z,29.32
2019-05-25T11:31:56.459Z,29.31
2019-05-25T11:34:20.409Z,29.34
2019-05-25T11:36:47.322Z,29.34
2019-05-25T11:39:14.275Z,29.34
2019-05-25T11:41:41.629Z,29.34
2019-05-25T11:44:08.575Z,29.36
2019-05-25T11:46:35.624Z,29.35
2019-05-25T11:49:02.589Z,29.34
2019-05-25T11:51:29.533Z,29.37
2019-05-25T11:53:56.481Z,29.40
2019-05-25T11:56:23.432Z,29.39
2019-05-25T11:58:50.301Z,29.37
2019-05-25T12:01:17.187Z,29.36
2019-05-25T12:03:44.076Z,29.39
2019-05-25T12:06:10.933Z,29.42
2019-05-25T12:08:37.945Z,29.41
2019-05-25T12:11:05.245Z,29.43
2019-05-25T12:13:32.482Z,29.36
2019-05-25T12:15:59.374Z,29.22
2019-05-25T12:18:26.618Z,29.20
2019-05-25T12:20:53.611Z,29.11
2019-05-25T12:23:20.670Z,29.11
2019-05-25T12:25:47.632Z,29.13
2019-05-25T12:28:14.981Z,29.19
2019-05-25T12:30:41.893Z,29.22
2019-05-25T12:33:08.785Z,29.27
2019-05-25T12:35:35.758Z,29.35
2019-05-25T12:38:02.811Z,29.39
2019-05-25T12:40:29.682Z,29.38
2019-05-25T12:42:56.895Z,29.41
2019-05-25T12:45:23.842Z,29.41
2019-05-25T12:47:51.109Z,29.44
2019-05-25T12:50:18.075Z,29.46
2019-05-25T12:52:44.938Z,29.45
2019-05-25T12:55:12.072Z,29.47
2019-05-25T12:57:39.041Z,29.39
2019-05-25T13:00:15.621Z,29.40
2019-05-25T13:02:34.582Z,29.37
2019-05-25T13:05:01.617Z,29.32
2019-05-25T13:07:29.523Z,29.29
2019-05-25T13:09:56.912Z,29.30
2019-05-25T13:12:23.852Z,29.32
2019-05-25T13:14:51.674Z,29.31
2019-05-25T13:17:18.623Z,29.32
2019-05-25T13:19:45.654Z,29.36
2019-05-25T13:22:12.561Z,29.35
2019-05-25T13:24:39.533Z,29.34
2019-05-25T13:27:06.462Z,29.31
2019-05-25T13:29:33.413Z,29.32
2019-05-25T13:32:00.691Z,29.30
2019-05-25T13:34:27.620Z,29.30
2019-05-25T13:36:54.553Z,29.32
2019-05-25T13:39:21.516Z,29.30
2019-05-25T13:41:48.930Z,29.29
2019-05-25T13:44:15.892Z,29.29
2019-05-25T13:46:43.526Z,29.27
2019-05-25T13:49:10.453Z,29.30
2019-05-25T13:51:37.383Z,29.35
2019-05-25T13:54:04.328Z,29.36
2019-05-25T13:56:31.283Z,29.38
2019-05-25T13:58:58.263Z,29.41
2019-05-25T14:01:28.345Z,29.40
2019-05-25T14:03:55.850Z,29.40
2019-05-25T14:06:22.778Z,29.42
2019-05-25T14:08:49.737Z,29.41
2019-05-25T14:11:16.673Z,29.41
2019-05-25T14:13:43.578Z,29.42
2019-05-25T14:16:10.469Z,29.40
2019-05-25T14:18:37.448Z,29.42
2019-05-25T14:21:04.442Z,29.45
2019-05-25T14:23:32.564Z,29.45
2019-05-25T14:25:59.521Z,29.43
2019-05-25T14:28:26.396Z,29.44
2019-05-25T14:30:53.365Z,29.42
2019-05-25T14:33:20.260Z,29.43
2019-05-25T14:35:47.213Z,29.43
2019-05-25T14:38:14.078Z,29.40
2019-05-25T14:40:40.950Z,29.41
2019-05-25T14:43:08.250Z,29.41
2019-05-25T14:45:35.139Z,29.38
2019-05-25T14:48:02.106Z,29.38
2019-05-25T14:50:29.579Z,29.41
2019-05-25T14:52:56.534Z,29.46
2019-05-25T14:55:23.411Z,29.51
2019-05-25T14:57:50.693Z,29.54
2019-05-25T15:00:17.819Z,29.55
2019-05-25T15:02:44.761Z,29.54
2019-05-25T15:05:11.734Z,29.53
2019-05-25T15:07:39.058Z,29.51
2019-05-25T15:10:06.535Z,29.48
2019-05-25T15:12:35.098Z,29.46
2019-05-25T15:15:02.062Z,29.46
2019-05-25T15:17:28.946Z,29.49
2019-05-25T15:19:56.898Z,29.50
2019-05-25T15:22:23.915Z,29.46
2019-05-25T15:24:50.793Z,29.47
2019-05-25T15:27:17.777Z,29.48
2019-05-25T15:29:44.641Z,29.46
2019-05-25T15:32:19.875Z,29.41
2019-05-25T15:34:40.136Z,29.40
2019-05-25T15:37:07.113Z,29.37
2019-05-25T15:39:34.139Z,29.33
2019-05-25T15:42:01.172Z,29.35
2019-05-25T15:44:28.301Z,29.34
2019-05-25T15:46:55.682Z,29.31
2019-05-25T15:49:32.471Z,29.30
2019-05-25T15:51:51.217Z,29.34
2019-05-25T15:54:18.104Z,29.32
2019-05-25T15:56:45.363Z,29.33
2019-05-25T15:59:12.325Z,29.33
2019-05-25T16:01:39.279Z,29.30
2019-05-25T16:04:06.149Z,29.26
2019-05-25T16:06:33.021Z,29.25
2019-05-25T16:09:01.267Z,29.23
2019-05-25T16:11:31.945Z,29.20
2019-05-25T16:13:58.725Z,29.19
2019-05-25T16:16:30.177Z,29.16
2019-05-25T16:18:55.158Z,29.17
2019-05-25T16:21:22.488Z,29.22
2019-05-25T16:23:49.464Z,29.24
2019-05-25T16:26:16.408Z,29.24
2019-05-25T16:28:43.376Z,29.24
2019-05-25T16:31:10.279Z,29.26
2019-05-25T16:33:37.298Z,29.26
2019-05-25T16:36:04.511Z,29.24
2019-05-25T16:38:31.491Z,29.24
2019-05-25T16:40:58.434Z,29.22
2019-05-25T16:43:25.402Z,29.26
2019-05-25T16:45:52.396Z,29.30
2019-05-25T16:48:19.378Z,29.25
2019-05-25T16:50:46.322Z,29.21
2019-05-25T16:53:13.198Z,29.21
2019-05-25T16:55:40.417Z,29.23
2019-05-25T16:58:07.374Z,29.20
2019-05-25T17:00:34.328Z,29.21
2019-05-25T17:03:01.297Z,29.22
2019-05-25T17:05:28.228Z,29.19
2019-05-25T17:07:55.202Z,29.16
2019-05-25T17:10:22.113Z,29.16
2019-05-25T17:12:49.096Z,29.16
2019-05-25T17:15:16.437Z,29.16
2019-05-25T17:17:43.447Z,29.16
2019-05-25T17:20:10.418Z,29.13
2019-05-25T17:22:37.379Z,29.11
2019-05-25T17:25:04.281Z,29.10
2019-05-25T17:27:31.357Z,29.07
2019-05-25T17:29:58.326Z,29.07
2019-05-25T17:32:25.281Z,29.05
2019-05-25T17:34:52.423Z,29.05
2019-05-25T17:37:19.527Z,29.03
2019-05-25T17:39:46.533Z,29.05
2019-05-25T17:42:13.475Z,29.03
2019-05-25T17:44:40.456Z,29.03
2019-05-25T17:47:07.425Z,29.01
2019-05-25T17:49:34.417Z,28.96
2019-05-25T17:52:01.395Z,28.94
2019-05-25T17:54:28.426Z,28.94
2019-05-25T17:56:55.624Z,28.93
2019-05-25T17:59:23.634Z,28.91
2019-05-25T18:01:50.523Z,28.90
2019-05-25T18:04:17.421Z,28.87
2019-05-25T18:06:47.197Z,28.86
2019-05-25T18:09:14.433Z,28.86
2019-05-25T18:11:41.582Z,28.87
2019-05-25T18:14:08.461Z,28.84
2019-05-25T18:16:35.327Z,28.82
2019-05-25T18:19:02.344Z,28.81
2019-05-25T18:21:29.260Z,28.79
2019-05-25T18:23:56.133Z,28.78
2019-05-25T18:26:22.998Z,28.73
2019-05-25T18:28:49.887Z,28.71
2019-05-25T18:31:16.909Z,28.69
2019-05-25T18:33:43.863Z,28.68
2019-05-25T18:36:11.148Z,28.64
2019-05-25T18:38:38.104Z,28.63
2019-05-25T18:41:05.128Z,28.62
2019-05-25T18:43:32.023Z,28.61
2019-05-25T18:45:58.978Z,28.61
2019-05-25T18:48:26.176Z,28.61
2019-05-25T18:50:53.076Z,28.55
2019-05-25T18:53:20.271Z,28.46
2019-05-25T18:55:47.413Z,28.40
2019-05-25T18:58:14.298Z,28.36
2019-05-25T19:00:41.212Z,28.31
2019-05-25T19:03:08.135Z,28.16
2019-05-25T19:05:36.106Z,27.97
2019-05-25T19:08:04.311Z,27.90
2019-05-25T19:10:31.366Z,27.78
2019-05-25T19:12:58.865Z,27.76
2019-05-25T19:15:25.837Z,27.78
2019-05-25T19:17:52.795Z,27.77
2019-05-25T19:20:21.233Z,27.68
2019-05-25T19:22:48.509Z,27.62
2019-05-25T19:25:15.401Z,27.60
2019-05-25T19:27:42.334Z,27.55
2019-05-25T19:30:09.222Z,27.57
2019-05-25T19:32:37.646Z,27.53
2019-05-25T19:35:04.540Z,27.45
2019-05-25T19:37:31.782Z,27.39
2019-05-25T19:39:58.783Z,27.39
2019-05-25T19:42:25.732Z,27.37
2019-05-25T19:44:52.643Z,27.43
2019-05-25T19:47:19.581Z,27.49
2019-05-25T19:49:46.441Z,27.52
2019-05-25T19:52:13.323Z,27.47
2019-05-25T19:54:40.561Z,27.44
2019-05-25T19:57:07.835Z,27.41
2019-05-25T19:59:34.917Z,27.40
2019-05-25T20:02:02.119Z,27.36
2019-05-25T20:04:28.983Z,27.30
2019-05-25T20:06:55.905Z,27.26
2019-05-25T20:09:22.868Z,27.21
2019-05-25T20:11:49.828Z,27.16
2019-05-25T20:14:17.878Z,27.13
2019-05-25T20:16:44.915Z,27.10
2019-05-25T20:19:13.194Z,27.08
2019-05-25T20:21:40.112Z,27.04
2019-05-25T20:24:07.088Z,27.01
2019-05-25T20:26:34.077Z,26.97
2019-05-25T20:29:01.087Z,26.93
2019-05-25T20:31:28.089Z,26.89
2019-05-25T20:33:55.015Z,26.87
2019-05-25T20:36:22.000Z,26.86
2019-05-25T20:38:48.955Z,26.78
2019-05-25T20:41:16.668Z,26.68
2019-05-25T20:43:43.611Z,26.65
2019-05-25T20:46:11.552Z,26.64
2019-05-25T20:48:38.519Z,26.59
2019-05-25T20:51:05.573Z,26.50
2019-05-25T20:53:32.532Z,26.40
2019-05-25T20:55:59.486Z,26.27
2019-05-25T20:58:26.345Z,26.22
2019-05-25T21:00:53.221Z,26.21
2019-05-25T21:03:20.187Z,26.16
2019-05-25T21:05:50.707Z,26.06
2019-05-25T21:08:15.817Z,25.96
2019-05-25T21:10:42.714Z,25.84
2019-05-25T21:13:09.583Z,25.76
2019-05-25T21:15:36.537Z,25.71
2019-05-25T21:18:03.800Z,25.70
2019-05-25T21:20:32.226Z,25.68
2019-05-25T21:22:59.139Z,25.66
2019-05-25T21:25:26.112Z,25.69
2019-05-25T21:27:53.425Z,25.70
2019-05-25T21:30:20.421Z,25.78
2019-05-25T21:32:47.341Z,25.84
2019-05-25T21:35:14.269Z,25.85
2019-05-25T21:37:41.503Z,25.78
2019-05-25T21:40:08.484Z,25.77
2019-05-25T21:42:36.833Z,25.80
2019-05-25T21:45:04.774Z,25.80
2019-05-25T21:47:31.661Z,25.76
2019-05-25T21:49:58.586Z,25.73
2019-05-25T21:52:25.492Z,25.73
2019-05-25T21:54:52.463Z,25.75
2019-05-25T21:57:19.426Z,25.76
2019-05-25T21:59:46.360Z,25.75
2019-05-25T22:02:13.245Z,25.70
2019-05-25T22:04:40.496Z,25.68
2019-05-25T22:07:07.462Z,25.70
2019-05-25T22:09:34.777Z,25.69
2019-05-25T22:12:01.672Z,25.72
2019-05-25T22:14:28.537Z,25.75
2019-05-25T22:16:55.421Z,25.74
2019-05-25T22:19:22.313Z,25.66
2019-05-25T22:21:49.267Z,25.60
2019-05-25T22:24:16.213Z,25.52
2019-05-25T22:26:43.378Z,25.42
2019-05-25T22:29:10.248Z,25.32
2019-05-25T22:31:37.121Z,25.28
2019-05-25T22:34:04.010Z,25.26
2019-05-25T22:36:40.147Z,25.23
2019-05-25T22:38:59.843Z,25.23
2019-05-25T22:41:26.713Z,25.22
2019-05-25T22:43:53.600Z,25.25
2019-05-25T22:46:20.808Z,25.28
2019-05-25T22:48:47.779Z,25.25
2019-05-25T22:51:14.739Z,25.22
2019-05-25T22:53:41.672Z,25.21
2019-05-25T22:56:08.618Z,25.17
2019-05-25T22:58:35.836Z,25.10
2019-05-25T23:01:02.740Z,25.02
2019-05-25T23:03:29.660Z,25.02
2019-05-25T23:05:56.606Z,24.99
2019-05-25T23:08:23.493Z,25.01
2019-05-25T23:10:50.366Z,25.05
2019-05-25T23:13:17.277Z,25.04
2019-05-25T23:15:44.236Z,24.98
2019-05-25T23:18:11.185Z,24.90
2019-05-25T23:20:38.078Z,24.88
2019-05-25T23:23:05.047Z,24.87
2019-05-25T23:25:32.003Z,24.86
2019-05-25T23:27:58.981Z,24.85
2019-05-25T23:30:26.009Z,24.88
2019-05-25T23:32:52.917Z,24.92
2019-05-25T23:35:20.745Z,24.94
2019-05-25T23:37:47.640Z,24.92
2019-05-25T23:40:14.577Z,24.80
2019-05-25T23:42:41.442Z,24.72
2019-05-25T23:45:09.398Z,24.70
2019-05-25T23:47:36.340Z,24.71
2019-05-25T23:50:03.318Z,24.71
2019-05-25T23:52:30.252Z,24.70
2019-05-25T23:54:57.149Z,24.72
2019-05-25T23:57:24.082Z,24.71
2019-05-25T23:59:51.533Z,24.69
